Time;durP1;ratioP1;P1;durP2;ratioP2;P2;SDS_P1;SDS_P2;PMS_P1;PMS_P2;Temp;Humidity;BMP_temperature;BMP_pressure;BME280_temperature;BME280_humidity;BME280_pressure;Samples;Min_cycle;Max_cycle;Signal;HPM_P1;HPM_P2
2023/04/08 00:01:53;;;;;;;9.82;5.93;;;6.10;99.90;;;;;;4974711;28;20488;-66
2023/04/08 00:04:19;;;;;;;8.65;6.30;;;6.00;99.90;;;;;;4974720;28;20566;-67
2023/04/08 00:06:45;;;;;;;8.68;6.05;;;5.80;99.90;;;;;;4958187;28;20101;-67
2023/04/08 00:09:11;;;;;;;11.40;6.32;;;6.00;99.90;;;;;;4957468;28;20050;-67
2023/04/08 00:11:36;;;;;;;8.35;6.00;;;5.90;99.90;;;;;;4974639;28;20043;-67
2023/04/08 00:14:03;;;;;;;8.32;5.60;;;6.20;99.90;;;;;;4957839;28;20141;-67
2023/04/08 00:16:29;;;;;;;7.57;5.80;;;5.90;99.90;;;;;;4974611;28;20054;-67
2023/04/08 00:18:55;;;;;;;8.70;5.63;;;5.80;99.90;;;;;;4975360;28;20046;-67
2023/04/08 00:21:22;;;;;;;9.88;5.93;;;5.70;99.90;;;;;;4975371;28;20378;-67
2023/04/08 00:23:48;;;;;;;8.48;5.88;;;6.00;99.90;;;;;;4974598;28;20149;-67
2023/04/08 00:26:14;;;;;;;8.70;5.70;;;6.00;99.90;;;;;;4974425;28;20078;-67
2023/04/08 00:28:41;;;;;;;10.45;5.88;;;5.90;99.90;;;;;;4974516;28;20047;-67
2023/04/08 00:31:07;;;;;;;9.50;6.10;;;5.70;99.90;;;;;;4957431;28;20054;-67
2023/04/08 00:33:33;;;;;;;7.18;5.60;;;6.10;99.90;;;;;;4974458;28;20047;-67
2023/04/08 00:35:58;;;;;;;8.43;6.10;;;5.80;99.90;;;;;;4974892;28;20049;-67
2023/04/08 00:38:24;;;;;;;11.00;6.97;;;6.00;99.90;;;;;;4974410;28;20105;-67
2023/04/08 00:40:50;;;;;;;8.15;6.00;;;5.70;99.90;;;;;;4975213;28;20057;-67
2023/04/08 00:43:19;;;;;;;9.38;6.05;;;5.70;99.90;;;;;;4958347;28;20457;-67
2023/04/08 00:45:45;;;;;;;8.77;6.40;;;5.50;99.90;;;;;;4978219;28;20086;-67
2023/04/08 00:48:11;;;;;;;8.68;6.78;;;5.80;99.90;;;;;;4978491;28;20055;-67
2023/04/08 00:50:36;;;;;;;10.45;6.47;;;5.60;99.90;;;;;;4977780;28;20046;-66
2023/04/08 00:53:02;;;;;;;10.20;6.32;;;5.40;99.90;;;;;;4978290;28;20054;-67
2023/04/08 00:55:28;;;;;;;9.50;7.05;;;5.60;99.90;;;;;;4977969;28;20473;-67
2023/04/08 00:57:55;;;;;;;10.30;6.95;;;5.70;99.90;;;;;;4977565;28;20097;-66
2023/04/08 01:00:21;;;;;;;9.30;6.53;;;5.60;99.90;;;;;;4977915;28;20047;-67
2023/04/08 01:03:17;;;;;;;9.82;7.03;;;5.40;99.90;;;;;;4977778;28;20051;-67
2023/04/08 01:05:52;;;;;;;8.18;7.07;;;5.30;99.90;;;;;;4967599;28;20512;-67
2023/04/08 01:08:19;;;;;;;11.02;7.50;;;5.80;99.90;;;;;;4961273;28;20042;-67
2023/04/08 01:10:51;;;;;;;11.18;7.18;;;5.30;99.90;;;;;;4960892;28;20055;-67
2023/04/08 01:13:20;;;;;;;10.40;7.60;;;5.60;99.90;;;;;;4977685;28;20086;-67
2023/04/08 01:15:46;;;;;;;11.73;7.82;;;5.40;99.90;;;;;;4977608;28;20055;-67
2023/04/08 01:18:14;;;;;;;10.10;7.45;;;5.20;99.90;;;;;;4977552;28;20047;-67
2023/04/08 01:20:41;;;;;;;12.23;8.00;;;5.20;99.90;;;;;;4977517;28;20046;-67
2023/04/08 01:23:31;;;;;;;9.98;7.65;;;5.70;99.90;;;;;;4978250;28;20050;-67
2023/04/08 01:25:57;;;;;;;14.15;8.25;;;5.20;99.90;;;;;;4977931;28;20062;-66
2023/04/08 01:28:26;;;;;;;11.57;7.90;;;5.20;99.90;;;;;;4960146;28;20043;-67
2023/04/08 01:30:55;;;;;;;10.10;8.07;;;5.70;99.90;;;;;;4977396;28;20497;-67
2023/04/08 01:33:22;;;;;;;12.13;8.77;;;5.30;99.90;;;;;;4977294;28;20043;-67
2023/04/08 01:35:48;;;;;;;12.10;8.88;;;5.50;99.90;;;;;;4977261;28;20046;-66
2023/04/08 01:38:17;;;;;;;10.57;7.97;;;5.60;99.90;;;;;;4959842;28;20046;-67
2023/04/08 01:40:45;;;;;;;11.63;7.90;;;5.40;99.90;;;;;;4977198;28;20073;-67
2023/04/08 01:43:13;;;;;;;13.50;9.57;;;5.40;99.90;;;;;;4977192;28;20238;-67
2023/04/08 01:45:39;;;;;;;12.20;8.38;;;5.10;99.90;;;;;;4976798;28;20480;-67
2023/04/08 01:48:06;;;;;;;12.80;8.88;;;5.40;99.90;;;;;;4977529;28;20054;-67
2023/04/08 01:50:32;;;;;;;13.15;8.75;;;5.20;99.90;;;;;;4976997;28;20046;-67
2023/04/08 01:52:59;;;;;;;13.13;9.05;;;5.40;99.90;;;;;;4960736;28;20443;-67
2023/04/08 01:55:26;;;;;;;12.45;8.90;;;5.40;99.90;;;;;;4976381;28;20440;-67
2023/04/08 01:57:55;;;;;;;17.05;9.02;;;5.30;99.90;;;;;;4959101;28;20525;-67
2023/04/08 02:00:26;;;;;;;12.88;8.73;;;5.80;99.90;;;;;;4976824;28;20047;-67
2023/04/08 02:02:53;;;;;;;13.98;8.95;;;5.40;99.90;;;;;;4976751;28;20121;-67
2023/04/08 02:05:19;;;;;;;14.38;8.95;;;5.80;99.90;;;;;;4976683;28;20054;-67
2023/04/08 02:07:46;;;;;;;13.50;8.75;;;5.10;99.90;;;;;;4976553;28;20047;-67
2023/04/08 02:10:12;;;;;;;13.15;8.95;;;5.60;99.90;;;;;;4959929;28;20366;-66
2023/04/08 02:12:38;;;;;;;15.27;9.35;;;5.50;99.90;;;;;;4959279;28;20133;-66
2023/04/08 02:15:04;;;;;;;15.27;9.80;;;5.30;99.90;;;;;;4976786;28;20046;-66
2023/04/08 02:17:36;;;;;;;14.30;9.32;;;5.10;99.90;;;;;;4977005;28;20043;-67
2023/04/08 02:20:08;;;;;;;12.23;8.25;;;5.70;99.90;;;;;;4976425;28;20134;-67
2023/04/08 02:22:43;;;;;;;13.73;9.60;;;5.20;99.90;;;;;;4959388;28;20054;-67
2023/04/08 02:25:13;;;;;;;14.43;9.52;;;5.50;99.90;;;;;;4976023;28;20485;-66
2023/04/08 02:27:40;;;;;;;13.10;8.80;;;5.40;99.90;;;;;;4976281;28;20042;-67
2023/04/08 02:30:07;;;;;;;14.95;9.88;;;5.30;99.90;;;;;;4959135;28;20547;-67
2023/04/08 02:32:35;;;;;;;15.43;9.80;;;5.20;99.90;;;;;;4976797;28;20061;-66
2023/04/08 02:35:02;;;;;;;14.40;8.93;;;5.50;99.90;;;;;;4976181;28;20405;-67
2023/04/08 02:37:29;;;;;;;14.18;9.60;;;5.50;99.90;;;;;;4976010;28;20074;-67
2023/04/08 02:39:55;;;;;;;14.02;9.90;;;5.50;99.90;;;;;;4976112;28;20134;-66
2023/04/08 02:42:20;;;;;;;13.82;9.20;;;5.50;99.90;;;;;;4976502;28;20141;-67
2023/04/08 02:44:46;;;;;;;13.68;9.93;;;5.40;99.90;;;;;;4959143;28;20047;-67
2023/04/08 02:47:12;;;;;;;12.80;9.18;;;5.40;99.90;;;;;;4975873;28;20042;-67
2023/04/08 02:49:38;;;;;;;17.70;10.07;;;5.60;99.90;;;;;;4976388;28;20038;-66
2023/04/08 02:52:04;;;;;;;15.73;10.18;;;6.00;99.90;;;;;;4975838;28;20389;-66
2023/04/08 02:54:30;;;;;;;14.65;9.38;;;5.30;99.90;;;;;;4975822;28;20051;-66
2023/04/08 02:56:56;;;;;;;16.80;10.23;;;5.60;99.90;;;;;;4975539;28;20097;-67
2023/04/08 02:59:21;;;;;;;14.00;9.15;;;5.60;99.90;;;;;;4975997;28;20046;-67
2023/04/08 03:01:47;;;;;;;15.73;10.07;;;5.70;99.90;;;;;;4976217;28;20535;-67
2023/04/08 03:04:13;;;;;;;14.57;9.63;;;5.60;99.90;;;;;;4975917;28;20054;-67
2023/04/08 03:06:38;;;;;;;15.45;9.52;;;5.50;99.90;;;;;;4975966;28;20110;-67
2023/04/08 03:09:07;;;;;;;15.68;10.27;;;5.60;99.90;;;;;;4975508;28;20457;-67
2023/04/08 03:11:32;;;;;;;17.70;9.88;;;5.40;99.90;;;;;;4976293;28;20409;-67
2023/04/08 03:13:59;;;;;;;15.70;10.00;;;5.20;99.90;;;;;;4975718;28;20047;-67
2023/04/08 03:16:25;;;;;;;16.55;10.07;;;5.50;99.90;;;;;;4975675;28;20501;-66
2023/04/08 03:18:51;;;;;;;15.57;9.95;;;5.30;99.90;;;;;;4975357;28;20093;-66
2023/04/08 03:21:17;;;;;;;15.35;9.68;;;5.60;99.90;;;;;;4975346;28;20140;-67
2023/04/08 03:23:43;;;;;;;16.25;10.05;;;5.40;99.90;;;;;;4975009;28;20046;-67
2023/04/08 03:26:09;;;;;;;16.65;10.38;;;5.40;99.90;;;;;;4975182;28;20089;-67
2023/04/08 03:28:35;;;;;;;17.45;10.25;;;5.40;99.90;;;;;;4975262;28;20054;-67
2023/04/08 03:31:02;;;;;;;17.42;10.18;;;5.50;99.90;;;;;;4975258;28;20122;-66
2023/04/08 03:33:28;;;;;;;16.63;10.63;;;5.70;99.90;;;;;;4975185;28;20055;-66
2023/04/08 03:35:54;;;;;;;16.80;10.48;;;5.50;99.90;;;;;;4957980;28;20461;-66
2023/04/08 03:38:20;;;;;;;18.77;10.15;;;5.40;99.90;;;;;;4974999;28;20038;-66
2023/04/08 03:40:46;;;;;;;17.60;10.93;;;5.10;99.90;;;;;;4975068;28;20046;-67
2023/04/08 03:43:13;;;;;;;20.42;11.10;;;5.60;99.90;;;;;;4974972;28;20093;-66
2023/04/08 03:45:39;;;;;;;15.38;9.77;;;5.20;99.90;;;;;;4941669;28;20059;-66
2023/04/08 03:48:05;;;;;;;16.77;10.90;;;5.70;99.90;;;;;;4974855;28;20042;-68
2023/04/08 03:50:30;;;;;;;15.98;10.18;;;5.20;99.90;;;;;;4975427;28;20042;-67
2023/04/08 03:52:56;;;;;;;18.08;10.05;;;5.50;99.90;;;;;;4974568;28;20145;-67
2023/04/08 03:55:22;;;;;;;16.35;10.25;;;5.50;99.90;;;;;;4974935;28;20047;-66
2023/04/08 03:57:48;;;;;;;15.57;9.63;;;5.70;99.90;;;;;;4975322;28;20376;-67
2023/04/08 04:00:13;;;;;;;15.05;10.10;;;5.50;99.90;;;;;;4941349;28;20055;-67
2023/04/08 04:02:39;;;;;;;16.58;10.25;;;5.10;99.90;;;;;;4974482;28;20054;-67
2023/04/08 04:05:07;;;;;;;17.15;11.07;;;5.40;99.90;;;;;;4974775;28;20163;-67
2023/04/08 04:07:32;;;;;;;17.50;10.68;;;5.10;99.90;;;;;;4974595;28;20083;-67
2023/04/08 04:09:58;;;;;;;15.80;9.85;;;5.20;99.90;;;;;;4974688;28;20105;-66
2023/04/08 04:12:24;;;;;;;17.45;10.88;;;5.10;99.90;;;;;;4975168;28;20051;-67
2023/04/08 04:14:50;;;;;;;19.48;10.65;;;5.30;99.90;;;;;;4975123;28;20077;-67
2023/04/08 04:17:15;;;;;;;17.73;10.48;;;5.50;99.90;;;;;;4957589;28;20101;-66
2023/04/08 04:19:41;;;;;;;15.15;9.73;;;5.20;99.90;;;;;;4959982;28;20551;-66
2023/04/08 04:22:07;;;;;;;20.25;10.63;;;5.50;99.90;;;;;;4978587;28;20061;-67
2023/04/08 04:24:33;;;;;;;17.20;10.30;;;5.20;99.90;;;;;;4979320;28;20053;-67
2023/04/08 04:26:58;;;;;;;17.33;10.52;;;5.20;99.90;;;;;;4978438;28;20038;-67
2023/04/08 04:29:24;;;;;;;17.15;10.70;;;5.30;99.90;;;;;;4978420;28;20505;-67
2023/04/08 04:31:50;;;;;;;18.15;9.95;;;5.20;99.90;;;;;;4978475;28;20053;-66
2023/04/08 04:34:16;;;;;;;20.65;10.90;;;5.30;99.90;;;;;;4978378;28;20086;-67
2023/04/08 04:36:42;;;;;;;15.25;9.52;;;5.00;99.90;;;;;;4978522;28;20039;-67
2023/04/08 04:39:07;;;;;;;17.00;10.20;;;5.40;99.90;;;;;;4978579;28;20110;-67
2023/04/08 04:41:37;;;;;;;17.63;10.35;;;5.30;99.90;;;;;;4978200;28;20046;-67
2023/04/08 04:44:03;;;;;;;17.98;10.88;;;5.10;99.90;;;;;;4978590;28;20097;-68
2023/04/08 04:46:29;;;;;;;17.90;10.70;;;4.90;99.90;;;;;;4978139;28;20082;-66
2023/04/08 04:48:55;;;;;;;18.92;11.23;;;5.50;99.90;;;;;;4978237;28;20050;-67
2023/04/08 04:51:21;;;;;;;18.27;10.80;;;5.10;99.90;;;;;;4978083;28;20576;-66
2023/04/08 04:53:48;;;;;;;18.52;11.30;;;5.30;99.90;;;;;;4978049;28;20113;-67
2023/04/08 04:56:14;;;;;;;16.35;9.70;;;5.50;99.90;;;;;;4977954;28;20051;-67
2023/04/08 04:58:41;;;;;;;17.25;10.57;;;5.30;99.90;;;;;;4978025;28;20105;-67
2023/04/08 05:01:07;;;;;;;19.48;11.45;;;5.80;99.90;;;;;;4977546;28;20105;-67
2023/04/08 05:03:33;;;;;;;18.52;10.52;;;5.30;99.90;;;;;;4977712;28;20051;-67
2023/04/08 05:05:59;;;;;;;19.67;11.70;;;5.30;99.90;;;;;;4978457;28;20047;-67
2023/04/08 05:08:25;;;;;;;21.55;11.57;;;5.10;99.90;;;;;;4977613;28;20055;-67
2023/04/08 05:10:51;;;;;;;18.10;11.10;;;5.60;99.90;;;;;;4977649;28;20050;-67
2023/04/08 05:13:17;;;;;;;19.25;11.38;;;5.80;99.90;;;;;;4978155;28;20047;-67
2023/04/08 05:15:44;;;;;;;17.13;11.15;;;5.20;99.90;;;;;;4977620;28;20050;-67
2023/04/08 05:18:10;;;;;;;19.98;11.48;;;5.40;99.90;;;;;;4960205;28;20563;-67
2023/04/08 05:20:36;;;;;;;18.40;11.80;;;5.30;99.90;;;;;;4977479;28;20138;-67
2023/04/08 05:23:02;;;;;;;17.42;11.30;;;5.50;99.90;;;;;;4977451;28;20050;-67
2023/04/08 05:25:29;;;;;;;18.90;11.73;;;5.80;99.90;;;;;;4960284;28;20050;-67
2023/04/08 05:27:56;;;;;;;19.27;11.27;;;5.60;99.90;;;;;;4977776;28;20101;-67
2023/04/08 05:30:22;;;;;;;17.95;11.18;;;5.50;99.90;;;;;;4977250;28;20086;-67
2023/04/08 05:32:47;;;;;;;21.25;10.85;;;5.60;99.90;;;;;;4960785;28;20536;-67
2023/04/08 05:35:13;;;;;;;17.30;11.35;;;5.60;99.90;;;;;;4976856;28;20057;-67
2023/04/08 05:37:39;;;;;;;18.95;11.50;;;5.80;99.90;;;;;;4977080;28;20047;-67
2023/04/08 05:40:05;;;;;;;17.27;10.82;;;6.00;99.90;;;;;;4977119;28;20477;-67
2023/04/08 05:42:31;;;;;;;17.77;10.73;;;5.70;99.90;;;;;;4959807;28;20057;-67
2023/04/08 05:44:57;;;;;;;16.52;11.15;;;6.00;99.90;;;;;;4959924;28;20133;-67
2023/04/08 05:47:23;;;;;;;19.63;11.68;;;5.80;99.90;;;;;;4977712;28;20050;-67
2023/04/08 05:49:48;;;;;;;17.00;10.45;;;5.80;99.90;;;;;;4976647;28;20485;-67
2023/04/08 05:52:15;;;;;;;18.98;11.07;;;6.30;99.90;;;;;;4976946;28;20125;-67
2023/04/08 05:54:44;;;;;;;16.58;10.23;;;6.20;99.90;;;;;;4977364;28;20051;-67
2023/04/08 05:57:10;;;;;;;15.18;9.57;;;6.10;99.90;;;;;;4976598;28;20058;-67
2023/04/08 05:59:36;;;;;;;15.07;9.90;;;6.20;99.90;;;;;;4977311;28;20063;-67
2023/04/08 06:02:02;;;;;;;16.00;9.70;;;6.00;99.90;;;;;;4959420;28;20198;-66
2023/04/08 06:04:27;;;;;;;14.90;9.73;;;6.50;99.90;;;;;;4976721;28;20058;-67
2023/04/08 06:06:53;;;;;;;14.93;9.77;;;6.30;99.90;;;;;;4977065;28;20129;-67
2023/04/08 06:09:19;;;;;;;13.32;9.57;;;6.40;99.90;;;;;;4977412;28;20039;-67
2023/04/08 06:11:46;;;;;;;15.88;9.88;;;6.30;99.90;;;;;;4977877;28;20485;-67
2023/04/08 06:14:11;;;;;;;14.02;9.23;;;6.30;99.90;;;;;;4977896;28;20057;-66
2023/04/08 06:16:37;;;;;;;14.20;10.00;;;6.40;99.90;;;;;;4976847;28;20043;-67
2023/04/08 06:19:03;;;;;;;14.60;9.82;;;6.20;99.90;;;;;;4976906;28;20043;-66
2023/04/08 06:21:28;;;;;;;14.90;10.05;;;6.40;99.90;;;;;;4960063;28;20042;-66
2023/04/08 06:23:54;;;;;;;15.32;10.30;;;6.50;99.90;;;;;;4976343;28;20082;-67
2023/04/08 06:26:20;;;;;;;14.07;9.25;;;6.40;99.90;;;;;;4976246;28;20042;-66
2023/04/08 06:28:46;;;;;;;15.55;9.80;;;6.70;99.90;;;;;;4959505;28;20149;-67
2023/04/08 06:31:11;;;;;;;14.90;9.98;;;6.60;99.90;;;;;;4976207;28;20401;-66
2023/04/08 06:33:37;;;;;;;13.32;8.88;;;6.60;99.90;;;;;;4976129;28;20089;-66
2023/04/08 06:36:04;;;;;;;14.63;9.48;;;6.40;99.90;;;;;;4976685;28;20042;-67
2023/04/08 06:38:30;;;;;;;15.70;10.00;;;6.50;99.90;;;;;;4975967;28;20054;-67
2023/04/08 06:41:07;;;;;;;15.43;9.55;;;6.50;99.90;;;;;;4976166;28;20051;-66
2023/04/08 06:43:34;;;;;;;14.27;9.73;;;6.70;99.90;;;;;;4976020;28;20075;-67
2023/04/08 06:46:00;;;;;;;14.05;9.60;;;6.80;99.90;;;;;;4975946;28;20047;-67
2023/04/08 06:48:28;;;;;;;14.73;9.55;;;6.50;99.90;;;;;;4958606;28;20118;-66
2023/04/08 06:50:57;;;;;;;14.25;9.20;;;6.60;99.90;;;;;;4958737;28;20054;-66
2023/04/08 06:53:24;;;;;;;16.27;9.73;;;6.90;99.90;;;;;;4975372;28;20043;-66
2023/04/08 06:55:50;;;;;;;15.52;10.10;;;6.60;99.90;;;;;;4976009;28;20092;-66
2023/04/08 06:58:16;;;;;;;15.27;9.77;;;6.50;99.90;;;;;;4975232;28;20094;-67
2023/04/08 07:00:41;;;;;;;13.60;9.45;;;6.70;99.90;;;;;;4975632;28;20050;-66
2023/04/08 07:03:07;;;;;;;14.10;9.25;;;6.70;99.90;;;;;;4975654;28;20105;-66
2023/04/08 07:05:35;;;;;;;14.93;9.30;;;7.00;99.90;;;;;;4975703;28;20078;-67
2023/04/08 07:08:01;;;;;;;16.02;9.80;;;7.00;99.90;;;;;;4975573;28;20046;-66
2023/04/08 07:10:27;;;;;;;13.90;9.90;;;7.00;99.90;;;;;;4975582;28;20512;-67
2023/04/08 07:12:53;;;;;;;13.90;9.30;;;6.70;99.90;;;;;;4975459;28;20046;-66
2023/04/08 07:15:19;;;;;;;14.38;9.63;;;6.70;99.90;;;;;;4975872;28;20046;-66
2023/04/08 07:17:46;;;;;;;16.05;9.40;;;6.80;99.90;;;;;;4975961;28;20433;-67
2023/04/08 07:20:15;;;;;;;14.82;9.23;;;7.20;99.90;;;;;;4975378;28;20062;-67
2023/04/08 07:22:41;;;;;;;14.73;8.90;;;7.00;99.90;;;;;;4957997;28;20155;-66
2023/04/08 07:25:07;;;;;;;13.73;8.40;;;6.80;99.90;;;;;;4975261;28;20130;-67
2023/04/08 07:27:33;;;;;;;14.00;8.48;;;6.90;99.90;;;;;;4975144;28;20393;-66
2023/04/08 07:29:59;;;;;;;12.63;8.48;;;7.10;99.90;;;;;;4957927;28;20053;-67
2023/04/08 07:32:25;;;;;;;14.60;9.65;;;7.00;99.90;;;;;;4975129;28;20050;-66
2023/04/08 07:34:50;;;;;;;12.75;8.52;;;7.10;99.90;;;;;;4975052;28;20072;-67
2023/04/08 07:37:16;;;;;;;13.25;7.90;;;6.90;99.90;;;;;;4975528;28;20381;-66
2023/04/08 07:39:42;;;;;;;13.18;8.60;;;7.20;99.90;;;;;;4958860;28;20098;-66
2023/04/08 07:42:08;;;;;;;13.25;8.02;;;7.00;99.90;;;;;;4957803;28;20449;-66
2023/04/08 07:44:34;;;;;;;13.10;8.48;;;7.10;99.90;;;;;;4974908;28;20054;-66
2023/04/08 07:47:00;;;;;;;13.60;8.38;;;7.00;99.90;;;;;;4975447;28;20078;-66
2023/04/08 07:49:26;;;;;;;10.43;7.85;;;7.00;99.90;;;;;;4957926;28;20493;-65
2023/04/08 07:51:52;;;;;;;11.52;7.68;;;7.30;99.90;;;;;;4975691;28;20043;-66
2023/04/08 07:54:18;;;;;;;12.00;8.15;;;7.10;99.90;;;;;;4974051;28;20094;-66
2023/04/08 07:56:44;;;;;;;12.88;7.50;;;7.00;99.90;;;;;;4974991;28;20043;-66
2023/04/08 07:59:10;;;;;;;11.65;7.85;;;7.10;99.90;;;;;;4974914;28;20401;-66
2023/04/08 08:01:36;;;;;;;12.10;7.78;;;7.30;99.90;;;;;;4974837;28;20051;-65
2023/04/08 08:04:02;;;;;;;10.55;6.90;;;7.10;99.90;;;;;;4975303;28;20042;-66
2023/04/08 08:06:28;;;;;;;11.77;7.20;;;7.40;99.90;;;;;;4957586;28;20516;-68
2023/04/08 08:08:54;;;;;;;9.68;6.60;;;7.30;99.90;;;;;;4975568;28;20086;-66
2023/04/08 08:11:21;;;;;;;9.65;6.72;;;7.30;99.90;;;;;;4975318;28;20452;-66
2023/04/08 08:13:47;;;;;;;10.70;6.10;;;7.60;99.90;;;;;;4974727;28;20055;-66
2023/04/08 08:16:13;;;;;;;10.98;6.45;;;7.30;99.90;;;;;;4974639;28;20051;-66
2023/04/08 08:18:39;;;;;;;9.70;6.05;;;7.50;99.90;;;;;;4974623;28;20110;-66
2023/04/08 08:21:05;;;;;;;8.27;5.72;;;7.50;99.90;;;;;;4974656;28;20441;-65
2023/04/08 08:23:31;;;;;;;9.70;6.38;;;7.40;99.90;;;;;;4974611;28;20046;-66
2023/04/08 08:26:01;;;;;;;9.35;6.13;;;7.60;99.90;;;;;;4974578;28;20057;-66
2023/04/08 08:28:27;;;;;;;9.43;5.78;;;7.70;99.90;;;;;;4974986;28;20051;-65
2023/04/08 08:30:53;;;;;;;8.80;6.15;;;7.80;99.90;;;;;;4957330;28;20051;-66
2023/04/08 08:33:19;;;;;;;10.07;6.35;;;7.80;99.90;;;;;;4974506;28;20135;-66
2023/04/08 08:35:45;;;;;;;9.57;6.38;;;7.80;99.90;;;;;;4974754;28;20043;-66
2023/04/08 08:38:12;;;;;;;8.02;5.55;;;7.60;99.90;;;;;;4974332;28;20392;-66
2023/04/08 08:40:38;;;;;;;8.73;6.07;;;7.90;99.90;;;;;;4957169;28;20408;-66
2023/04/08 08:43:04;;;;;;;9.68;5.78;;;7.70;99.90;;;;;;4973953;28;20505;-65
2023/04/08 08:45:30;;;;;;;9.88;6.10;;;7.70;99.90;;;;;;4974402;28;20082;-65
2023/04/08 08:47:59;;;;;;;9.85;6.32;;;7.70;99.90;;;;;;4974330;28;20053;-66
2023/04/08 08:50:26;;;;;;;8.75;6.10;;;7.70;99.90;;;;;;4974836;28;20062;-65
2023/04/08 08:52:52;;;;;;;10.35;6.40;;;8.10;99.90;;;;;;4974390;28;20451;-65
2023/04/08 08:55:19;;;;;;;9.82;6.22;;;7.80;99.90;;;;;;4974332;28;20097;-65
2023/04/08 08:57:45;;;;;;;11.57;7.05;;;7.90;99.90;;;;;;4974610;28;20114;-65
2023/04/08 09:00:14;;;;;;;12.65;7.20;;;7.90;99.90;;;;;;4974320;28;20046;-66
2023/04/08 09:02:40;;;;;;;12.65;7.78;;;7.90;99.90;;;;;;4957198;28;20086;-66
2023/04/08 09:05:06;;;;;;;11.07;7.25;;;8.00;99.90;;;;;;4976276;28;20085;-66
2023/04/08 09:07:39;;;;;;;12.60;7.43;;;8.00;99.90;;;;;;4977685;28;20485;-66
2023/04/08 09:10:05;;;;;;;13.15;7.30;;;8.10;99.90;;;;;;4961074;28;20062;-66
2023/04/08 09:12:31;;;;;;;12.82;7.97;;;8.10;99.90;;;;;;4978520;28;20050;-66
2023/04/08 09:15:08;;;;;;;14.27;8.73;;;8.20;99.90;;;;;;4977726;28;20508;-66
2023/04/08 09:17:38;;;;;;;14.55;8.52;;;8.20;99.90;;;;;;4978278;28;20043;-66
2023/04/08 09:20:10;;;;;;;16.33;8.50;;;8.40;99.90;;;;;;4977737;28;20134;-66
2023/04/08 09:23:02;;;;;;;13.85;8.80;;;8.20;99.90;;;;;;4960572;28;20627;-66
2023/04/08 09:25:32;;;;;;;16.48;8.77;;;8.40;99.90;;;;;;4973566;28;20062;-66
2023/04/08 09:27:59;;;;;;;16.23;9.20;;;8.40;99.90;;;;;;4960418;28;20061;-67
2023/04/08 09:30:26;;;;;;;13.10;8.32;;;8.50;99.90;;;;;;4977400;28;20050;-66
2023/04/08 09:32:54;;;;;;;14.48;9.10;;;8.50;99.90;;;;;;4977991;28;20054;-66
2023/04/08 09:35:20;;;;;;;15.80;9.05;;;8.50;99.90;;;;;;4977569;28;20485;-66
2023/04/08 09:37:47;;;;;;;16.90;9.77;;;8.60;99.90;;;;;;4977299;28;20388;-66
2023/04/08 09:40:15;;;;;;;17.20;9.85;;;8.60;99.90;;;;;;4960029;28;20057;-67
2023/04/08 09:42:47;;;;;;;13.00;8.30;;;8.70;99.90;;;;;;4977183;28;20086;-66
2023/04/08 09:45:14;;;;;;;18.90;10.30;;;8.70;99.90;;;;;;4977284;28;20051;-67
2023/04/08 09:48:17;;;;;;;14.80;8.52;;;8.80;99.90;;;;;;4977101;28;20046;-67
2023/04/08 09:50:48;;;;;;;15.75;9.35;;;8.90;99.90;;;;;;4977878;28;20189;-67
2023/04/08 09:53:25;;;;;;;15.93;9.13;;;8.90;99.90;;;;;;4977072;28;20089;-67
2023/04/08 09:55:55;;;;;;;16.80;9.65;;;8.90;99.90;;;;;;4977057;28;20047;-67
2023/04/08 09:58:27;;;;;;;17.80;9.85;;;9.00;99.90;;;;;;4976926;28;20499;-67
2023/04/08 10:00:53;;;;;;;17.90;11.18;;;9.00;99.90;;;;;;4943727;28;20051;-67
2023/04/08 10:03:44;;;;;;;19.63;11.25;;;8.90;99.90;;;;;;4976775;28;20133;-67
2023/04/08 10:06:10;;;;;;;20.65;12.30;;;9.10;99.90;;;;;;4977303;28;20130;-67
2023/04/08 10:08:37;;;;;;;20.92;12.55;;;9.20;99.90;;;;;;4976724;28;20047;-66
2023/04/08 10:11:03;;;;;;;20.05;12.48;;;9.10;99.90;;;;;;4976605;28;20051;-67
2023/04/08 10:13:29;;;;;;;21.48;12.50;;;9.10;99.90;;;;;;4976612;28;20050;-67
2023/04/08 10:16:25;;;;;;;18.55;10.27;;;9.10;99.90;;;;;;4976627;28;20130;-66
2023/04/08 10:18:55;;;;;;;17.90;11.20;;;9.10;99.90;;;;;;4959530;28;20046;-67
2023/04/08 10:21:41;;;;;;;21.08;11.70;;;9.10;99.90;;;;;;4976467;28;20054;-66
2023/04/08 10:24:08;;;;;;;22.10;13.48;;;9.10;99.90;;;;;;4976964;28;20050;-67
2023/04/08 10:26:42;;;;;;;22.88;13.00;;;9.10;99.90;;;;;;4976895;28;20049;-67
2023/04/08 10:29:16;;;;;;;23.50;12.40;;;9.10;99.90;;;;;;4976365;28;20413;-67
2023/04/08 10:31:43;;;;;;;19.80;12.85;;;9.10;99.90;;;;;;4976271;28;20058;-67
2023/04/08 10:34:17;;;;;;;23.35;13.35;;;9.10;99.90;;;;;;4976324;28;20054;-67
2023/04/08 10:36:44;;;;;;;21.83;13.27;;;9.10;99.90;;;;;;4976385;28;20039;-67
2023/04/08 10:39:11;;;;;;;21.92;13.40;;;9.10;99.90;;;;;;4976144;28;20047;-67
2023/04/08 10:41:43;;;;;;;24.45;13.80;;;9.20;99.90;;;;;;4976161;28;20102;-66
2023/04/08 10:44:20;;;;;;;26.10;13.80;;;9.30;99.90;;;;;;4959302;28;20055;-66
2023/04/08 10:46:48;;;;;;;22.35;13.88;;;9.20;99.90;;;;;;4976496;28;20385;-66
2023/04/08 10:49:14;;;;;;;25.25;13.93;;;9.20;99.90;;;;;;4976762;28;20132;-66
2023/04/08 10:51:41;;;;;;;26.02;14.68;;;9.20;99.90;;;;;;4958936;28;20051;-66
2023/04/08 10:54:08;;;;;;;24.08;13.32;;;9.30;99.90;;;;;;4976534;28;20053;-66
2023/04/08 10:56:48;;;;;;;25.40;13.50;;;9.30;99.90;;;;;;4975821;28;20047;-66
2023/04/08 10:59:16;;;;;;;25.63;14.20;;;9.20;99.90;;;;;;4975888;28;20060;-66
2023/04/08 11:01:43;;;;;;;25.67;14.70;;;9.20;99.90;;;;;;4975735;28;20050;-66
2023/04/08 11:04:13;;;;;;;26.15;15.20;;;9.30;99.90;;;;;;4975642;28;20062;-67
2023/04/08 11:06:41;;;;;;;27.75;15.38;;;9.20;99.90;;;;;;4975611;28;20086;-67
2023/04/08 11:09:07;;;;;;;25.27;15.88;;;9.40;99.90;;;;;;4975819;28;20043;-66
2023/04/08 11:11:33;;;;;;;25.83;15.88;;;9.30;99.90;;;;;;4975564;28;20081;-67
2023/04/08 11:14:00;;;;;;;26.38;15.40;;;9.30;99.90;;;;;;4958961;28;20058;-67
2023/04/08 11:16:27;;;;;;;24.20;13.93;;;9.30;99.90;;;;;;4975382;28;20059;-67
2023/04/08 11:18:54;;;;;;;24.17;14.02;;;9.30;99.90;;;;;;4975287;28;20042;-66
2023/04/08 11:21:22;;;;;;;21.17;13.52;;;9.40;99.90;;;;;;4958530;28;20082;-67
2023/04/08 11:23:50;;;;;;;20.55;13.45;;;9.40;99.90;;;;;;4975358;28;20126;-67
2023/04/08 11:26:16;;;;;;;23.05;14.07;;;9.40;99.90;;;;;;4976071;28;20058;-66
2023/04/08 11:28:42;;;;;;;20.80;13.10;;;9.40;99.90;;;;;;4975021;28;20551;-66
2023/04/08 11:31:08;;;;;;;19.80;12.93;;;9.50;99.90;;;;;;4975220;28;20051;-66
2023/04/08 11:33:35;;;;;;;24.13;14.25;;;9.40;99.90;;;;;;4975420;28;20065;-66
2023/04/08 11:36:04;;;;;;;24.48;14.50;;;9.40;99.90;;;;;;4975122;28;20054;-68
2023/04/08 11:38:30;;;;;;;25.77;15.02;;;9.60;99.90;;;;;;4957722;28;20043;-67
2023/04/08 11:41:00;;;;;;;24.25;14.10;;;9.40;99.90;;;;;;4958408;28;20127;-67
2023/04/08 11:43:27;;;;;;;22.00;13.43;;;9.50;99.90;;;;;;4975393;28;20137;-67
2023/04/08 11:45:53;;;;;;;19.45;12.60;;;9.50;99.90;;;;;;4975843;28;20157;-68
2023/04/08 11:48:18;;;;;;;21.00;12.45;;;9.50;99.90;;;;;;4975162;28;20078;-67
2023/04/08 11:50:44;;;;;;;18.75;11.85;;;9.50;99.90;;;;;;4974932;28;20051;-67
2023/04/08 11:53:21;;;;;;;20.40;12.07;;;9.70;99.90;;;;;;4975418;28;20054;-68
2023/04/08 11:55:47;;;;;;;22.52;11.93;;;9.60;99.90;;;;;;4975510;28;20042;-67
2023/04/08 11:58:13;;;;;;;20.63;12.13;;;9.70;99.90;;;;;;4954485;28;20401;-67
2023/04/08 12:00:39;;;;;;;19.63;13.40;;;9.70;99.90;;;;;;4955611;28;20139;-67
2023/04/08 12:03:06;;;;;;;21.80;13.77;;;9.70;99.90;;;;;;4956140;28;20083;-67
2023/04/08 12:05:31;;;;;;;22.40;13.98;;;9.80;99.90;;;;;;4955605;28;20051;-67
2023/04/08 12:07:57;;;;;;;21.15;14.20;;;9.80;99.90;;;;;;4955351;28;20090;-67
2023/04/08 12:10:24;;;;;;;22.10;14.93;;;9.80;99.90;;;;;;4955981;28;20043;-67
2023/04/08 12:12:50;;;;;;;19.00;14.15;;;9.90;99.90;;;;;;4955477;28;20126;-67
2023/04/08 12:15:16;;;;;;;21.55;13.68;;;9.90;99.90;;;;;;4955687;29;20135;-67
2023/04/08 12:17:42;;;;;;;22.67;15.05;;;9.90;99.90;;;;;;4954425;29;20572;-67
2023/04/08 12:20:09;;;;;;;25.63;15.32;;;9.90;99.90;;;;;;4955348;28;20055;-67
2023/04/08 12:22:35;;;;;;;23.77;16.60;;;9.90;99.90;;;;;;4955386;28;20059;-67
2023/04/08 12:25:04;;;;;;;27.38;17.52;;;10.00;99.90;;;;;;4955361;28;20049;-66
2023/04/08 12:27:32;;;;;;;27.25;18.48;;;10.00;99.90;;;;;;4956017;28;20047;-67
2023/04/08 12:29:58;;;;;;;30.58;19.85;;;10.00;99.90;;;;;;4954960;28;20082;-67
2023/04/08 12:32:24;;;;;;;28.80;19.88;;;10.10;99.90;;;;;;4955223;28;20110;-67
2023/04/08 12:34:50;;;;;;;31.00;22.13;;;10.10;99.90;;;;;;4955123;29;20441;-67
2023/04/08 12:37:16;;;;;;;28.88;20.77;;;10.10;99.90;;;;;;4955142;28;20106;-67
2023/04/08 12:39:42;;;;;;;29.23;22.42;;;10.10;99.90;;;;;;4956068;28;20133;-68
2023/04/08 12:42:08;;;;;;;35.55;23.17;;;10.10;99.90;;;;;;4958972;29;20137;-67
2023/04/08 12:44:34;;;;;;;35.78;23.83;;;10.30;99.90;;;;;;4958984;28;20047;-67